Time;durP1;ratioP1;P1;durP2;ratioP2;P2;SDS_P1;SDS_P2;PMS_P1;PMS_P2;Temp;Humidity;BMP_temperature;BMP_pressure;BME280_temperature;BME280_humidity;BME280_pressure;Samples;Min_cycle;Max_cycle;Signal;HPM_P1;HPM_P2
2022/03/16 00:01:33;;;;;;;28.73;19.93;;;;;;;;;;4997674;28;20302;-70
2022/03/16 00:03:59;;;;;;;31.73;20.10;;;;;;;;;;4992692;28;20177;-71
2022/03/16 00:06:24;;;;;;;26.47;18.90;;;;;;;;;;4997910;28;20189;-70
2022/03/16 00:08:50;;;;;;;26.33;19.40;;;;;;;;;;4997620;28;20205;-70
2022/03/16 00:11:15;;;;;;;27.53;19.73;;;;;;;;;;4995398;28;20417;-71
2022/03/16 00:13:41;;;;;;;26.43;18.30;;;;;;;;;;4993574;28;20263;-70
2022/03/16 00:16:06;;;;;;;26.43;18.37;;;;;;;;;;4995112;28;20185;-70
2022/03/16 00:18:32;;;;;;;31.10;19.70;;;;;;;;;;4995233;28;20471;-70
2022/03/16 00:20:58;;;;;;;23.90;18.33;;;;;;;;;;4995958;28;20204;-70
2022/03/16 00:23:24;;;;;;;26.67;19.40;;;;;;;;;;4997638;28;20209;-70
2022/03/16 00:25:49;;;;;;;25.37;18.10;;;;;;;;;;5011606;28;20436;-70
2022/03/16 00:28:15;;;;;;;26.83;19.30;;;;;;;;;;4997311;28;20185;-70
2022/03/16 00:30:40;;;;;;;23.33;17.67;;;;;;;;;;4996130;28;20216;-70
2022/03/16 00:33:06;;;;;;;26.67;18.90;;;;;;;;;;5009444;28;20224;-70
2022/03/16 00:35:31;;;;;;;23.63;17.20;;;;;;;;;;4994842;28;20185;-71
2022/03/16 00:37:57;;;;;;;26.47;18.57;;;;;;;;;;4997011;28;20429;-70
2022/03/16 00:40:22;;;;;;;29.17;19.77;;;;;;;;;;4994654;28;20284;-70
2022/03/16 00:42:47;;;;;;;27.07;19.80;;;;;;;;;;4992950;28;20233;-69
2022/03/16 00:45:13;;;;;;;26.60;19.80;;;;;;;;;;4997036;28;20247;-70
2022/03/16 00:47:39;;;;;;;27.40;19.43;;;;;;;;;;5000440;28;20420;-70
2022/03/16 00:50:04;;;;;;;31.33;19.80;;;;;;;;;;4998326;28;20188;-70
2022/03/16 00:52:30;;;;;;;27.83;19.83;;;;;;;;;;4998907;28;20785;-70
2022/03/16 00:54:55;;;;;;;25.73;17.90;;;;;;;;;;4993538;28;20193;-70
2022/03/16 00:57:20;;;;;;;27.30;18.40;;;;;;;;;;4996830;28;20642;-70
2022/03/16 00:59:46;;;;;;;25.07;18.73;;;;;;;;;;4989879;28;20185;-70
2022/03/16 01:02:11;;;;;;;24.33;18.70;;;;;;;;;;4997100;28;20214;-70
2022/03/16 01:04:37;;;;;;;26.77;19.17;;;;;;;;;;4993217;28;20181;-70
2022/03/16 01:07:02;;;;;;;27.27;19.67;;;;;;;;;;4994146;28;20180;-70
2022/03/16 01:09:28;;;;;;;28.33;19.20;;;;;;;;;;4993645;28;20193;-70
2022/03/16 01:11:53;;;;;;;26.47;19.93;;;;;;;;;;4991904;28;20213;-70
2022/03/16 01:14:18;;;;;;;28.97;20.73;;;;;;;;;;5023617;22;20690;-73
2022/03/16 01:16:44;;;;;;;29.87;19.43;;;;;;;;;;5015461;28;20605;-72
2022/03/16 01:19:09;;;;;;;26.37;19.17;;;;;;;;;;5016920;28;20219;-73
2022/03/16 01:21:34;;;;;;;30.10;20.10;;;;;;;;;;5011465;28;20312;-72
2022/03/16 01:24:00;;;;;;;24.00;17.93;;;;;;;;;;5016405;28;20214;-72
2022/03/16 01:26:26;;;;;;;26.50;18.57;;;;;;;;;;5014233;28;20193;-72
2022/03/16 01:28:51;;;;;;;28.50;18.77;;;;;;;;;;5011239;28;20439;-72
2022/03/16 01:31:19;;;;;;;26.47;18.03;;;;;;;;;;5013505;28;20229;-73
2022/03/16 01:33:45;;;;;;;30.37;18.90;;;;;;;;;;5015924;28;20213;-72
2022/03/16 01:36:11;;;;;;;28.10;20.10;;;;;;;;;;5014137;28;20429;-72
2022/03/16 01:38:36;;;;;;;22.20;17.50;;;;;;;;;;5015913;28;20577;-73
2022/03/16 01:41:02;;;;;;;25.50;19.23;;;;;;;;;;5014818;28;20545;-72
2022/03/16 01:43:27;;;;;;;22.80;17.63;;;;;;;;;;5016450;28;20211;-72
2022/03/16 01:45:53;;;;;;;22.80;18.20;;;;;;;;;;5020235;28;20191;-72
2022/03/16 01:48:19;;;;;;;28.17;19.57;;;;;;;;;;5013522;28;20287;-72
2022/03/16 01:50:45;;;;;;;25.97;18.40;;;;;;;;;;5015147;28;20260;-72
2022/03/16 01:53:11;;;;;;;28.13;18.57;;;;;;;;;;5016002;28;20529;-72
2022/03/16 01:55:37;;;;;;;23.70;17.70;;;;;;;;;;5012318;28;20489;-72
2022/03/16 01:58:02;;;;;;;25.60;17.50;;;;;;;;;;5014580;28;20462;-72
2022/03/16 02:00:28;;;;;;;24.53;17.13;;;;;;;;;;5014800;28;21059;-71
2022/03/16 02:02:53;;;;;;;24.80;17.13;;;;;;;;;;5014908;28;20220;-72
2022/03/16 02:05:18;;;;;;;24.43;17.10;;;;;;;;;;5009236;28;20184;-72
2022/03/16 02:07:44;;;;;;;25.57;17.00;;;;;;;;;;5015790;28;20195;-71
2022/03/16 02:10:10;;;;;;;26.83;18.57;;;;;;;;;;5011789;28;20196;-72
2022/03/16 02:12:42;;;;;;;23.70;18.13;;;;;;;;;;5012172;28;20216;-72
2022/03/16 02:15:08;;;;;;;20.73;15.67;;;;;;;;;;5014141;28;20512;-72
2022/03/16 02:17:33;;;;;;;23.13;17.80;;;;;;;;;;5017957;28;20944;-72
2022/03/16 02:19:58;;;;;;;22.40;16.67;;;;;;;;;;5024773;28;20203;-72
2022/03/16 02:22:24;;;;;;;23.47;18.00;;;;;;;;;;5014033;28;20216;-71
2022/03/16 02:24:50;;;;;;;20.40;16.93;;;;;;;;;;5014392;28;20657;-71
2022/03/16 02:27:15;;;;;;;25.00;17.50;;;;;;;;;;5014165;28;20512;-71
2022/03/16 02:29:41;;;;;;;23.83;16.40;;;;;;;;;;5011472;28;20177;-71
2022/03/16 02:32:06;;;;;;;21.63;16.17;;;;;;;;;;5015101;28;20177;-71
2022/03/16 02:34:31;;;;;;;23.87;16.30;;;;;;;;;;5016655;28;20238;-71
2022/03/16 02:36:57;;;;;;;27.43;17.73;;;;;;;;;;5012203;28;20185;-71
2022/03/16 02:39:22;;;;;;;27.40;17.40;;;;;;;;;;5014921;28;20182;-71
2022/03/16 02:41:48;;;;;;;23.20;17.60;;;;;;;;;;5016921;28;20240;-72
2022/03/16 02:44:13;;;;;;;27.10;15.47;;;;;;;;;;5014277;28;20197;-71
2022/03/16 02:46:38;;;;;;;25.20;17.50;;;;;;;;;;5014285;28;20173;-72
2022/03/16 02:49:04;;;;;;;23.90;17.43;;;;;;;;;;5013548;28;20594;-72
2022/03/16 02:51:29;;;;;;;21.87;16.83;;;;;;;;;;5016465;28;20181;-72
2022/03/16 02:53:54;;;;;;;23.57;15.97;;;;;;;;;;5015575;28;20987;-72
2022/03/16 02:56:20;;;;;;;22.87;16.93;;;;;;;;;;5014141;28;20177;-72
2022/03/16 02:58:45;;;;;;;22.80;16.00;;;;;;;;;;5013043;28;20212;-72
2022/03/16 03:01:11;;;;;;;23.60;16.23;;;;;;;;;;5018339;28;20214;-72
2022/03/16 03:03:36;;;;;;;23.63;16.20;;;;;;;;;;5012097;28;20291;-72
2022/03/16 03:06:02;;;;;;;20.40;15.93;;;;;;;;;;5016346;28;20667;-72
2022/03/16 03:08:27;;;;;;;22.53;15.60;;;;;;;;;;5013501;28;20173;-72
2022/03/16 03:10:52;;;;;;;21.47;15.87;;;;;;;;;;5016959;28;20173;-72
2022/03/16 03:13:18;;;;;;;19.80;15.00;;;;;;;;;;5012946;28;20227;-72
2022/03/16 03:15:43;;;;;;;23.93;15.90;;;;;;;;;;5010375;28;20193;-71
2022/03/16 03:18:09;;;;;;;20.57;14.37;;;;;;;;;;5016201;28;20242;-72
2022/03/16 03:20:34;;;;;;;21.93;16.10;;;;;;;;;;5022390;28;20188;-72
2022/03/16 03:22:59;;;;;;;21.53;16.33;;;;;;;;;;5021612;28;20205;-72
2022/03/16 03:25:25;;;;;;;22.77;15.43;;;;;;;;;;5020569;28;20173;-72
2022/03/16 03:27:50;;;;;;;21.57;16.00;;;;;;;;;;5018299;28;20551;-71
2022/03/16 03:30:16;;;;;;;22.17;15.77;;;;;;;;;;5020865;28;20262;-71
2022/03/16 03:32:41;;;;;;;18.80;14.20;;;;;;;;;;5017119;28;20205;-71
2022/03/16 03:35:07;;;;;;;22.87;14.53;;;;;;;;;;5014153;28;20638;-72
2022/03/16 03:37:33;;;;;;;18.30;14.33;;;;;;;;;;5015438;28;20185;-71
2022/03/16 03:39:58;;;;;;;19.37;14.70;;;;;;;;;;5010124;28;20489;-72
2022/03/16 03:42:24;;;;;;;21.10;15.70;;;;;;;;;;5015654;28;20282;-72
2022/03/16 03:44:49;;;;;;;17.13;13.50;;;;;;;;;;5018980;28;20195;-71
2022/03/16 03:47:14;;;;;;;20.53;15.10;;;;;;;;;;5020154;28;20187;-72
2022/03/16 03:49:41;;;;;;;19.20;14.10;;;;;;;;;;5018534;28;20194;-72
2022/03/16 03:52:07;;;;;;;17.13;13.83;;;;;;;;;;5021268;28;20192;-72
2022/03/16 03:54:33;;;;;;;18.90;14.60;;;;;;;;;;5020396;28;20522;-72
2022/03/16 03:56:58;;;;;;;21.43;15.33;;;;;;;;;;5019547;28;20522;-72
2022/03/16 03:59:24;;;;;;;22.93;16.23;;;;;;;;;;5020838;28;20457;-72
2022/03/16 04:01:50;;;;;;;20.90;14.87;;;;;;;;;;5020948;28;20203;-71
2022/03/16 04:04:15;;;;;;;18.87;14.60;;;;;;;;;;5017758;28;20205;-72
2022/03/16 04:06:40;;;;;;;20.40;14.63;;;;;;;;;;5022636;28;20180;-72
2022/03/16 04:09:06;;;;;;;19.93;13.00;;;;;;;;;;5018146;28;20188;-72
2022/03/16 04:11:31;;;;;;;22.37;15.70;;;;;;;;;;5018362;28;20181;-72
2022/03/16 04:13:57;;;;;;;21.47;14.17;;;;;;;;;;5020123;28;20708;-72
2022/03/16 04:16:22;;;;;;;20.50;15.10;;;;;;;;;;5019245;28;20700;-72
2022/03/16 04:18:48;;;;;;;19.43;15.00;;;;;;;;;;5020235;28;20663;-72
2022/03/16 04:21:13;;;;;;;19.43;14.50;;;;;;;;;;5021088;28;20180;-72
2022/03/16 04:23:39;;;;;;;19.83;13.93;;;;;;;;;;5022657;28;20592;-71
2022/03/16 04:26:04;;;;;;;20.80;15.00;;;;;;;;;;5017836;28;20215;-71
2022/03/16 04:28:29;;;;;;;19.40;14.33;;;;;;;;;;5018455;28;20177;-72
2022/03/16 04:30:55;;;;;;;19.50;14.90;;;;;;;;;;5019966;28;20203;-72
2022/03/16 04:33:20;;;;;;;19.47;14.70;;;;;;;;;;5021767;28;20204;-72
2022/03/16 04:35:45;;;;;;;20.57;14.47;;;;;;;;;;5018738;28;20189;-72
2022/03/16 04:38:11;;;;;;;19.10;14.90;;;;;;;;;;5017136;28;20204;-71
2022/03/16 04:40:36;;;;;;;20.63;14.33;;;;;;;;;;5017242;28;20265;-72
2022/03/16 04:43:02;;;;;;;18.47;14.50;;;;;;;;;;5018967;28;20701;-72
2022/03/16 04:45:27;;;;;;;19.97;14.50;;;;;;;;;;5017352;28;20194;-72
2022/03/16 04:47:53;;;;;;;18.27;13.87;;;;;;;;;;5019112;28;20184;-72
2022/03/16 04:50:18;;;;;;;19.27;15.17;;;;;;;;;;5019186;28;20180;-72
2022/03/16 04:52:45;;;;;;;19.37;14.83;;;;;;;;;;5018351;28;20263;-72
2022/03/16 04:55:10;;;;;;;23.13;15.77;;;;;;;;;;5016436;28;20442;-72
2022/03/16 04:57:36;;;;;;;23.80;15.43;;;;;;;;;;5016818;28;20466;-72
2022/03/16 05:00:01;;;;;;;22.97;15.70;;;;;;;;;;5016362;28;20641;-72
2022/03/16 05:02:26;;;;;;;22.07;15.30;;;;;;;;;;5014571;28;20299;-72
2022/03/16 05:04:52;;;;;;;18.60;15.17;;;;;;;;;;5011416;28;20185;-72
2022/03/16 05:07:17;;;;;;;19.50;15.33;;;;;;;;;;5032324;28;20704;-72
2022/03/16 05:09:42;;;;;;;22.90;15.47;;;;;;;;;;5016487;28;20176;-72
2022/03/16 05:12:08;;;;;;;19.87;15.17;;;;;;;;;;5018837;28;20184;-72
2022/03/16 05:14:34;;;;;;;20.20;15.63;;;;;;;;;;5017086;28;20196;-72
2022/03/16 05:16:59;;;;;;;27.00;17.80;;;;;;;;;;5008668;28;20200;-72
2022/03/16 05:19:26;;;;;;;25.97;15.90;;;;;;;;;;5014235;28;20184;-72
2022/03/16 05:21:51;;;;;;;24.23;17.70;;;;;;;;;;5016713;28;20197;-72
2022/03/16 05:24:19;;;;;;;21.40;15.93;;;;;;;;;;5014823;28;20557;-72
2022/03/16 05:26:45;;;;;;;20.10;15.50;;;;;;;;;;5014920;28;20237;-72
2022/03/16 05:29:10;;;;;;;21.17;16.17;;;;;;;;;;5014561;28;20873;-71
2022/03/16 05:31:36;;;;;;;27.57;15.30;;;;;;;;;;5011296;28;20187;-71
2022/03/16 05:34:01;;;;;;;22.87;16.10;;;;;;;;;;5008999;28;20780;-73
2022/03/16 05:36:26;;;;;;;24.27;16.77;;;;;;;;;;5016878;28;20177;-73
2022/03/16 05:38:52;;;;;;;22.17;16.17;;;;;;;;;;5014544;28;20184;-73
2022/03/16 05:41:17;;;;;;;22.73;16.43;;;;;;;;;;5010016;28;20188;-72
2022/03/16 05:43:43;;;;;;;21.20;15.70;;;;;;;;;;5003864;28;20659;-71
2022/03/16 05:46:08;;;;;;;22.70;16.33;;;;;;;;;;5014782;28;20217;-72
2022/03/16 05:48:33;;;;;;;22.83;16.70;;;;;;;;;;5011853;28;20327;-72
2022/03/16 05:50:59;;;;;;;21.73;16.97;;;;;;;;;;5003950;28;20185;-72
2022/03/16 05:53:24;;;;;;;24.03;17.50;;;;;;;;;;5008142;28;20244;-71
2022/03/16 05:55:49;;;;;;;24.47;15.80;;;;;;;;;;4998760;28;20188;-71
2022/03/16 05:58:15;;;;;;;22.37;16.47;;;;;;;;;;5011253;28;20730;-71
2022/03/16 06:00:42;;;;;;;24.20;18.07;;;;;;;;;;5009892;28;20287;-71
2022/03/16 06:03:07;;;;;;;21.63;17.37;;;;;;;;;;5011421;28;20270;-71
2022/03/16 06:05:33;;;;;;;28.10;17.73;;;;;;;;;;5001394;28;20434;-71
2022/03/16 06:07:59;;;;;;;25.57;17.17;;;;;;;;;;5002209;28;20184;-71
2022/03/16 06:10:25;;;;;;;28.47;18.73;;;;;;;;;;5003584;28;20192;-71
2022/03/16 06:12:51;;;;;;;29.50;17.20;;;;;;;;;;5003403;28;20487;-71
2022/03/16 06:15:16;;;;;;;22.83;18.10;;;;;;;;;;5009894;28;20184;-71
2022/03/16 06:17:41;;;;;;;23.40;16.77;;;;;;;;;;5003648;28;20435;-71
2022/03/16 06:20:07;;;;;;;23.30;17.13;;;;;;;;;;5009833;28;20668;-71
2022/03/16 06:22:32;;;;;;;23.40;16.60;;;;;;;;;;5010557;28;20303;-70
2022/03/16 06:24:57;;;;;;;27.43;17.97;;;;;;;;;;5008609;28;20181;-71
2022/03/16 06:27:23;;;;;;;24.40;17.87;;;;;;;;;;5007492;28;20177;-72
2022/03/16 06:29:48;;;;;;;22.83;16.47;;;;;;;;;;5011208;28;20204;-72
2022/03/16 06:32:13;;;;;;;21.33;16.90;;;;;;;;;;5011813;28;20187;-71
2022/03/16 06:34:38;;;;;;;25.80;17.53;;;;;;;;;;5008345;28;20563;-72
2022/03/16 06:37:04;;;;;;;25.63;17.90;;;;;;;;;;5009737;28;20184;-71
2022/03/16 06:39:29;;;;;;;27.50;19.10;;;;;;;;;;5003495;28;20889;-71
2022/03/16 06:41:54;;;;;;;24.73;19.00;;;;;;;;;;5001801;28;20212;-71
2022/03/16 06:44:20;;;;;;;27.10;17.50;;;;;;;;;;5011522;28;20621;-71
2022/03/16 06:46:47;;;;;;;24.47;16.83;;;;;;;;;;5007771;28;20216;-71
2022/03/16 06:49:12;;;;;;;23.67;17.33;;;;;;;;;;5007763;28;20177;-71
2022/03/16 06:51:38;;;;;;;24.20;17.10;;;;;;;;;;5010231;28;20439;-71
2022/03/16 06:54:03;;;;;;;27.47;18.83;;;;;;;;;;5013424;28;20405;-71
2022/03/16 06:56:28;;;;;;;23.00;17.20;;;;;;;;;;5011622;28;20184;-71
2022/03/16 06:58:54;;;;;;;25.90;17.40;;;;;;;;;;5008525;28;20180;-71
2022/03/16 07:01:19;;;;;;;22.83;17.37;;;;;;;;;;5016945;28;20192;-72
2022/03/16 07:03:45;;;;;;;23.90;18.20;;;;;;;;;;5016623;28;20221;-71
2022/03/16 07:06:11;;;;;;;25.83;17.40;;;;;;;;;;5011383;28;20894;-72
2022/03/16 07:08:36;;;;;;;21.77;16.63;;;;;;;;;;5013998;28;20435;-71
2022/03/16 07:11:02;;;;;;;21.10;17.90;;;;;;;;;;5004109;28;20184;-71
2022/03/16 07:13:27;;;;;;;23.20;17.43;;;;;;;;;;5010713;22;21045;-69
2022/03/16 07:15:52;;;;;;;24.60;17.90;;;;;;;;;;4989428;28;20185;-70
2022/03/16 07:18:19;;;;;;;28.60;18.20;;;;;;;;;;4995874;28;20228;-70
2022/03/16 07:20:46;;;;;;;26.73;17.67;;;;;;;;;;4990085;28;20585;-70
2022/03/16 07:23:12;;;;;;;26.10;18.00;;;;;;;;;;4991224;28;20483;-71
2022/03/16 07:25:38;;;;;;;26.90;18.47;;;;;;;;;;4981629;28;20679;-70
2022/03/16 07:28:04;;;;;;;26.80;19.20;;;;;;;;;;4981153;28;20652;-72
2022/03/16 07:30:30;;;;;;;24.27;18.17;;;;;;;;;;4983923;28;20440;-70
2022/03/16 07:32:55;;;;;;;25.23;19.73;;;;;;;;;;4985940;28;20815;-71
2022/03/16 07:35:26;;;;;;;27.00;19.27;;;;;;;;;;4984842;28;20196;-70
2022/03/16 07:37:51;;;;;;;23.70;18.10;;;;;;;;;;4988369;28;20177;-70
2022/03/16 07:40:16;;;;;;;30.40;20.50;;;;;;;;;;4979383;28;21350;-70
2022/03/16 07:42:45;;;;;;;27.30;19.40;;;;;;;;;;4980055;28;20271;-70
2022/03/16 07:45:11;;;;;;;29.27;21.20;;;;;;;;;;4977193;28;20190;-70
2022/03/16 07:47:36;;;;;;;31.23;21.10;;;;;;;;;;4982230;28;20848;-70
2022/03/16 07:50:02;;;;;;;34.03;22.07;;;;;;;;;;4973706;28;20871;-70
2022/03/16 07:52:27;;;;;;;27.13;20.60;;;;;;;;;;4986521;28;20887;-70
2022/03/16 07:54:52;;;;;;;30.70;21.87;;;;;;;;;;4971361;28;20379;-70
2022/03/16 07:57:18;;;;;;;29.23;22.00;;;;;;;;;;4990079;28;20213;-70
2022/03/16 07:59:43;;;;;;;33.97;22.40;;;;;;;;;;4993117;28;20244;-70
2022/03/16 08:02:09;;;;;;;31.10;21.60;;;;;;;;;;4983388;28;20561;-70
2022/03/16 08:04:35;;;;;;;30.50;21.77;;;;;;;;;;4988639;28;22246;-70
2022/03/16 08:07:00;;;;;;;28.80;20.70;;;;;;;;;;4976075;28;21096;-71
2022/03/16 08:09:25;;;;;;;30.83;22.23;;;;;;;;;;4985447;28;20178;-71
2022/03/16 08:11:50;;;;;;;31.33;23.43;;;;;;;;;;4991933;28;20194;-71
2022/03/16 08:14:16;;;;;;;36.37;22.33;;;;;;;;;;4988012;28;20210;-71
2022/03/16 08:16:41;;;;;;;32.13;23.17;;;;;;;;;;4992001;28;20945;-70
2022/03/16 08:19:06;;;;;;;31.17;23.00;;;;;;;;;;4984606;28;20217;-70
2022/03/16 08:21:32;;;;;;;33.63;24.00;;;;;;;;;;4988004;28;20182;-70
2022/03/16 08:23:57;;;;;;;34.50;24.63;;;;;;;;;;4983447;28;20280;-70
2022/03/16 08:26:24;;;;;;;36.87;24.90;;;;;;;;;;4969105;28;20658;-70
2022/03/16 08:28:50;;;;;;;36.97;25.67;;;;;;;;;;4981872;28;20670;-70
2022/03/16 08:31:15;;;;;;;37.80;26.90;;;;;;;;;;4985383;28;20443;-70
2022/03/16 08:33:41;;;;;;;38.07;28.87;;;;;;;;;;4987799;28;20809;-70
2022/03/16 08:36:07;;;;;;;41.33;27.97;;;;;;;;;;4984478;28;20675;-71
2022/03/16 08:38:36;;;;;;;40.20;26.67;;;;;;;;;;4989497;28;20456;-71
2022/03/16 08:41:01;;;;;;;44.60;27.57;;;;;;;;;;4987912;28;20618;-70
2022/03/16 08:43:27;;;;;;;45.57;29.07;;;;;;;;;;4987530;28;20477;-70
2022/03/16 08:45:53;;;;;;;42.97;29.37;;;;;;;;;;4984109;28;20181;-70
2022/03/16 08:48:18;;;;;;;42.53;29.87;;;;;;;;;;4985508;28;20186;-70
2022/03/16 08:50:44;;;;;;;43.20;29.20;;;;;;;;;;4976687;28;20463;-70
2022/03/16 08:53:09;;;;;;;40.50;29.20;;;;;;;;;;4983361;28;20693;-69
2022/03/16 08:55:37;;;;;;;41.70;29.90;;;;;;;;;;4982707;28;20190;-69
2022/03/16 08:58:02;;;;;;;45.37;29.67;;;;;;;;;;4983579;28;20193;-70
2022/03/16 09:00:27;;;;;;;45.93;28.27;;;;;;;;;;4982686;28;20469;-70
2022/03/16 09:02:53;;;;;;;46.30;30.80;;;;;;;;;;4998389;28;20231;-69
2022/03/16 09:05:18;;;;;;;42.57;29.87;;;;;;;;;;4982784;28;20196;-69
2022/03/16 09:07:44;;;;;;;45.20;29.30;;;;;;;;;;4985270;28;20642;-69
2022/03/16 09:10:09;;;;;;;46.03;30.50;;;;;;;;;;4979204;28;20349;-69
2022/03/16 09:12:35;;;;;;;44.80;32.20;;;;;;;;;;4984129;28;20819;-72
2022/03/16 09:15:01;;;;;;;44.93;32.80;;;;;;;;;;4979778;28;20189;-71
2022/03/16 09:17:26;;;;;;;45.63;31.50;;;;;;;;;;4971342;28;20201;-70
2022/03/16 09:19:52;;;;;;;46.77;30.50;;;;;;;;;;4982935;28;20189;-70
2022/03/16 09:22:18;;;;;;;41.83;29.90;;;;;;;;;;4985271;28;20201;-70
2022/03/16 09:24:43;;;;;;;44.80;30.47;;;;;;;;;;4978993;28;20444;-69
2022/03/16 09:27:09;;;;;;;48.30;31.80;;;;;;;;;;4976858;28;20642;-70
2022/03/16 09:29:34;;;;;;;41.73;30.13;;;;;;;;;;4985032;28;20182;-70
2022/03/16 09:32:00;;;;;;;45.70;31.67;;;;;;;;;;4984169;28;20874;-70
2022/03/16 09:34:25;;;;;;;40.00;28.70;;;;;;;;;;4978714;28;20205;-70
2022/03/16 09:36:51;;;;;;;41.97;30.80;;;;;;;;;;4973603;28;20247;-70
2022/03/16 09:39:16;;;;;;;41.17;29.33;;;;;;;;;;4982643;28;20192;-70
2022/03/16 09:41:42;;;;;;;42.67;30.20;;;;;;;;;;4981882;28;20190;-70
2022/03/16 09:44:09;;;;;;;39.90;29.67;;;;;;;;;;4983291;28;20201;-70
2022/03/16 09:46:36;;;;;;;43.60;30.57;;;;;;;;;;4982896;28;20558;-70
2022/03/16 09:49:01;;;;;;;38.07;29.90;;;;;;;;;;4975312;28;20436;-69
2022/03/16 09:51:27;;;;;;;37.33;28.00;;;;;;;;;;4971899;28;20925;-70
2022/03/16 09:53:53;;;;;;;39.37;29.10;;;;;;;;;;4982529;28;20578;-70
2022/03/16 09:56:19;;;;;;;39.53;29.97;;;;;;;;;;4983650;28;20211;-70
2022/03/16 09:58:45;;;;;;;36.63;28.00;;;;;;;;;;4982383;28;20440;-70
2022/03/16 10:01:11;;;;;;;32.73;25.97;;;;;;;;;;4978399;28;20189;-70
2022/03/16 10:03:36;;;;;;;34.90;26.07;;;;;;;;;;4982151;28;20209;-70
2022/03/16 10:06:06;;;;;;;31.70;24.60;;;;;;;;;;4968849;28;21109;-70
2022/03/16 10:08:33;;;;;;;31.87;22.33;;;;;;;;;;4972783;28;20244;-70
2022/03/16 10:13:53;;;;;;;29.70;22.00;;;;;;;;;;4978706;28;20579;-70
2022/03/16 10:16:19;;;;;;;26.67;19.80;;;;;;;;;;4979336;28;20960;-70
2022/03/16 10:18:51;;;;;;;26.20;18.07;;;;;;;;;;4990387;28;20433;-69
2022/03/16 10:21:17;;;;;;;25.83;17.80;;;;;;;;;;4979032;28;20185;-69
2022/03/16 10:23:43;;;;;;;23.40;18.17;;;;;;;;;;4980888;28;21019;-70
2022/03/16 10:26:14;;;;;;;24.10;18.73;;;;;;;;;;4969020;28;20269;-69
2022/03/16 10:28:40;;;;;;;27.27;19.13;;;;;;;;;;4979970;28;20433;-70
2022/03/16 10:31:07;;;;;;;25.67;18.23;;;;;;;;;;4978975;28;20429;-70
2022/03/16 10:33:36;;;;;;;23.27;18.83;;;;;;;;;;4980303;28;20473;-70
2022/03/16 10:36:06;;;;;;;25.47;19.47;;;;;;;;;;4976378;28;20522;-70
2022/03/16 10:38:39;;;;;;;26.80;19.73;;;;;;;;;;4971550;28;20436;-69
2022/03/16 10:46:48;;;;;;;28.10;19.57;;;;;;;;;;4979992;28;20510;-69
2022/03/16 10:49:17;;;;;;;27.73;19.63;;;;;;;;;;4979776;28;20479;-70
2022/03/16 10:51:43;;;;;;;31.00;20.97;;;;;;;;;;4978854;28;20528;-70
2022/03/16 10:54:08;;;;;;;24.17;17.50;;;;;;;;;;4977983;28;20459;-70
2022/03/16 10:56:37;;;;;;;25.27;17.07;;;;;;;;;;4977676;28;20440;-70
2022/03/16 10:59:02;;;;;;;27.67;17.83;;;;;;;;;;4980613;28;20217;-69
2022/03/16 11:01:28;;;;;;;24.63;17.17;;;;;;;;;;4984946;28;20681;-68
2022/03/16 11:03:58;;;;;;;26.53;17.57;;;;;;;;;;4988314;28;20594;-68
2022/03/16 11:06:24;;;;;;;24.60;17.40;;;;;;;;;;4977765;28;20425;-67
2022/03/16 11:08:50;;;;;;;22.97;16.87;;;;;;;;;;4985988;28;20436;-68
2022/03/16 11:14:01;;;;;;;20.83;16.10;;;;;;;;;;4986804;28;20638;-70
2022/03/16 11:16:27;;;;;;;23.43;15.53;;;;;;;;;;4982318;28;20440;-70
2022/03/16 11:18:52;;;;;;;23.63;15.40;;;;;;;;;;4991836;28;20497;-70
2022/03/16 11:21:28;;;;;;;22.63;15.53;;;;;;;;;;4989436;28;20256;-70
2022/03/16 11:26:44;;;;;;;20.23;15.50;;;;;;;;;;4989911;28;20780;-70
2022/03/16 11:29:19;;;;;;;22.93;16.43;;;;;;;;;;4988012;28;20927;-70
2022/03/16 11:31:44;;;;;;;21.57;14.30;;;;;;;;;;4989042;28;20459;-71
2022/03/16 11:34:11;;;;;;;23.23;16.77;;;;;;;;;;4985783;28;20460;-70
2022/03/16 11:36:43;;;;;;;20.60;15.63;;;;;;;;;;4988072;28;20211;-70
2022/03/16 11:39:19;;;;;;;25.33;16.87;;;;;;;;;;4992105;28;20483;-68
2022/03/16 11:42:11;;;;;;;23.77;17.83;;;;;;;;;;4989729;28;20439;-68
2022/03/16 11:44:38;;;;;;;22.43;16.10;;;;;;;;;;4991108;28;20566;-70
2022/03/16 11:47:09;;;;;;;22.93;17.07;;;;;;;;;;4993322;28;20404;-70
2022/03/16 11:49:35;;;;;;;19.20;14.90;;;;;;;;;;4991107;28;20795;-70
2022/03/16 11:52:02;;;;;;;21.90;14.80;;;;;;;;;;4988578;28;20431;-68
2022/03/16 11:54:48;;;;;;;23.37;16.33;;;;;;;;;;4992443;28;20766;-68
2022/03/16 11:57:14;;;;;;;22.40;16.90;;;;;;;;;;4984530;28;20421;-70
2022/03/16 11:59:46;;;;;;;24.37;17.03;;;;;;;;;;4990659;28;20476;-70
2022/03/16 12:02:16;;;;;;;22.70;16.00;;;;;;;;;;4972743;28;20468;-70
2022/03/16 12:04:43;;;;;;;25.70;16.33;;;;;;;;;;4983104;28;20432;-70
2022/03/16 12:07:21;;;;;;;22.50;15.30;;;;;;;;;;4964462;28;20441;-70
2022/03/16 12:09:49;;;;;;;22.37;17.03;;;;;;;;;;5002623;28;20440;-68
2022/03/16 12:15:11;;;;;;;18.13;13.30;;;;;;;;;;4986216;28;20479;-70
2022/03/16 12:17:43;;;;;;;15.50;12.13;;;;;;;;;;4982680;28;20435;-70
2022/03/16 12:20:21;;;;;;;17.43;12.30;;;;;;;;;;4986991;28;21006;-70
2022/03/16 12:22:56;;;;;;;18.20;12.20;;;;;;;;;;4983250;28;20506;-70
2022/03/16 12:25:27;;;;;;;17.30;11.87;;;;;;;;;;4985845;28;20543;-70
2022/03/16 12:30:41;;;;;;;20.43;13.10;;;;;;;;;;4977141;28;20424;-70
2022/03/16 12:33:09;;;;;;;15.67;11.80;;;;;;;;;;4984746;28;20488;-70
2022/03/16 12:35:34;;;;;;;18.87;13.10;;;;;;;;;;4981731;28;20436;-70
2022/03/16 12:38:05;;;;;;;20.43;12.60;;;;;;;;;;4981506;28;20498;-70
2022/03/16 12:40:31;;;;;;;19.63;13.40;;;;;;;;;;4984617;28;20182;-70
2022/03/16 12:42:57;;;;;;;22.60;15.77;;;;;;;;;;4976227;28;20512;-70
2022/03/16 12:45:28;;;;;;;18.73;13.47;;;;;;;;;;4980968;28;20779;-69
2022/03/16 12:48:04;;;;;;;24.30;12.83;;;;;;;;;;4962838;28;20188;-70
2022/03/16 12:50:29;;;;;;;22.07;13.57;;;;;;;;;;4980394;28;20993;-71
2022/03/16 12:52:55;;;;;;;18.77;12.93;;;;;;;;;;4978295;28;20452;-70
2022/03/16 12:55:20;;;;;;;16.80;11.63;;;;;;;;;;4984121;28;20186;-70
2022/03/16 12:57:55;;;;;;;23.33;13.10;;;;;;;;;;4994294;28;20200;-70
2022/03/16 13:00:21;;;;;;;19.40;12.50;;;;;;;;;;4967981;28;20177;-71
2022/03/16 13:02:47;;;;;;;18.30;12.40;;;;;;;;;;4982347;28;21187;-70
2022/03/16 13:05:17;;;;;;;19.00;12.00;;;;;;;;;;4985484;28;20192;-68
2022/03/16 13:07:44;;;;;;;15.30;10.63;;;;;;;;;;4986814;28;20435;-68
2022/03/16 13:10:09;;;;;;;15.00;9.80;;;;;;;;;;4983725;28;20428;-69
2022/03/16 13:15:06;;;;;;;14.00;10.00;;;;;;;;;;4988500;28;20231;-69
2022/03/16 13:17:35;;;;;;;14.27;10.33;;;;;;;;;;4999235;28;20432;-69
2022/03/16 13:20:01;;;;;;;15.23;11.10;;;;;;;;;;4999616;28;20247;-69
2022/03/16 13:22:30;;;;;;;17.77;11.97;;;;;;;;;;4997863;28;20964;-69
2022/03/16 13:24:55;;;;;;;16.10;10.70;;;;;;;;;;4966205;28;20571;-69
2022/03/16 13:27:25;;;;;;;13.73;10.17;;;;;;;;;;4969258;28;20441;-69
2022/03/16 13:29:52;;;;;;;20.03;10.50;;;;;;;;;;4989863;28;20189;-69
2022/03/16 13:32:37;;;;;;;16.50;10.10;;;;;;;;;;4980200;28;20436;-69
2022/03/16 13:35:10;;;;;;;16.73;11.27;;;;;;;;;;4973261;28;20436;-70
2022/03/16 13:37:36;;;;;;;19.40;12.73;;;;;;;;;;4979240;28;20451;-69
2022/03/16 13:40:03;;;;;;;18.13;10.93;;;;;;;;;;4977483;28;20445;-69
2022/03/16 13:42:33;;;;;;;16.70;10.33;;;;;;;;;;4981147;28;20460;-69
2022/03/16 13:45:17;;;;;;;13.37;10.23;;;;;;;;;;4982177;28;20417;-68
2022/03/16 13:47:44;;;;;;;17.40;11.10;;;;;;;;;;4974128;28;20424;-68
2022/03/16 13:50:17;;;;;;;16.67;11.00;;;;;;;;;;4990986;28;20437;-69
2022/03/16 13:52:43;;;;;;;12.63;9.63;;;;;;;;;;4981158;28;21197;-69
2022/03/16 13:55:11;;;;;;;12.57;9.20;;;;;;;;;;4980091;28;20424;-69
2022/03/16 13:57:42;;;;;;;12.03;8.90;;;;;;;;;;4980575;28;20598;-69
2022/03/16 14:00:09;;;;;;;15.27;9.67;;;;;;;;;;4972070;28;20432;-70
2022/03/16 14:02:35;;;;;;;15.63;10.67;;;;;;;;;;4980760;28;20449;-69
2022/03/16 14:05:02;;;;;;;13.03;10.00;;;;;;;;;;4967793;28;20424;-69
2022/03/16 14:07:29;;;;;;;12.80;9.70;;;;;;;;;;4979013;28;20181;-69
2022/03/16 14:09:55;;;;;;;13.13;10.43;;;;;;;;;;4977932;28;21011;-69
2022/03/16 14:12:22;;;;;;;15.10;10.17;;;;;;;;;;4975329;28;20440;-69
2022/03/16 14:14:48;;;;;;;14.30;11.00;;;;;;;;;;4977665;28;20530;-67
2022/03/16 14:17:14;;;;;;;13.43;10.27;;;;;;;;;;4974661;28;20424;-69
2022/03/16 14:19:40;;;;;;;14.70;10.70;;;;;;;;;;4979043;28;20452;-69
2022/03/16 14:22:06;;;;;;;14.87;10.87;;;;;;;;;;4972560;28;20209;-68
2022/03/16 14:24:33;;;;;;;16.00;12.10;;;;;;;;;;4977206;28;20483;-69
2022/03/16 14:27:15;;;;;;;19.13;12.60;;;;;;;;;;4978048;28;20554;-70
2022/03/16 14:29:41;;;;;;;13.80;11.10;;;;;;;;;;4977102;28;20945;-69
2022/03/16 14:32:06;;;;;;;15.57;11.80;;;;;;;;;;4957686;28;20444;-69
2022/03/16 14:34:32;;;;;;;14.30;11.43;;;;;;;;;;4972365;28;20209;-68